Time;durP1;ratioP1;P1;durP2;ratioP2;P2;SDS_P1;SDS_P2;PMS_P1;PMS_P2;Temp;Humidity;BMP_temperature;BMP_pressure;BME280_temperature;BME280_humidity;BME280_pressure;Samples;Min_cycle;Max_cycle;Signal;HPM_P1;HPM_P2
2024/01/27 00:00:17;;;;;;;3.20;2.50;;;;;;;4.50;52.98;95351.03;5115623;28;20225;-70
2024/01/27 00:02:45;;;;;;;3.45;2.33;;;;;;;4.47;53.28;95337.19;5098622;28;20248;-70
2024/01/27 00:05:12;;;;;;;4.32;2.60;;;;;;;4.48;53.16;95336.06;5098229;28;20187;-69
2024/01/27 00:07:41;;;;;;;3.00;2.40;;;;;;;4.48;53.00;95336.88;5115582;28;20604;-70
2024/01/27 00:10:09;;;;;;;4.00;2.72;;;;;;;4.51;53.06;95340.94;5098498;28;20191;-70
2024/01/27 00:12:36;;;;;;;3.85;2.53;;;;;;;4.55;53.01;95350.91;5115504;28;20188;-70
2024/01/27 00:15:05;;;;;;;4.25;2.67;;;;;;;4.54;52.93;95343.84;5115510;28;20180;-70
2024/01/27 00:17:32;;;;;;;3.67;2.55;;;;;;;4.50;53.17;95334.66;5115793;28;20567;-70
2024/01/27 00:20:01;;;;;;;4.70;2.53;;;;;;;4.50;53.20;95325.63;5115750;28;20176;-70
2024/01/27 00:22:28;;;;;;;4.93;2.97;;;;;;;4.50;53.17;95328.34;5116052;28;20199;-70
2024/01/27 00:24:57;;;;;;;4.53;2.55;;;;;;;4.46;53.28;95328.16;5115947;28;20180;-70
2024/01/27 00:27:25;;;;;;;3.83;2.58;;;;;;;4.46;53.21;95335.56;5115403;28;20548;-70
2024/01/27 00:29:52;;;;;;;3.17;2.20;;;;;;;4.49;53.32;95327.56;5093931;28;20289;-71
2024/01/27 00:32:19;;;;;;;3.45;2.35;;;;;;;4.51;53.28;95322.59;5094868;28;20187;-71
2024/01/27 00:34:46;;;;;;;4.00;2.70;;;;;;;4.52;53.37;95320.69;5095804;28;20254;-71
2024/01/27 00:37:13;;;;;;;5.50;2.70;;;;;;;4.54;53.26;95321.19;5099276;28;20177;-71
2024/01/27 00:39:40;;;;;;;4.75;2.65;;;;;;;4.57;53.54;95337.78;5099279;28;20577;-71
2024/01/27 00:42:08;;;;;;;3.58;2.80;;;;;;;4.58;53.32;95323.00;5099359;28;20184;-71
2024/01/27 00:44:35;;;;;;;3.67;2.70;;;;;;;4.59;53.52;95329.25;5099200;28;20184;-71
2024/01/27 00:47:03;;;;;;;4.00;2.53;;;;;;;4.59;53.75;95332.78;5098732;28;20567;-71
2024/01/27 00:49:31;;;;;;;3.13;2.78;;;;;;;4.59;53.07;95345.66;5099809;28;20215;-71
2024/01/27 00:51:58;;;;;;;3.97;2.40;;;;;;;4.63;53.61;95335.72;5098632;28;20192;-70
2024/01/27 00:54:25;;;;;;;4.53;3.08;;;;;;;4.64;53.71;95337.31;5097714;28;20712;-70
2024/01/27 00:56:52;;;;;;;5.07;2.63;;;;;;;4.65;54.06;95332.66;5098548;28;20294;-70
2024/01/27 00:59:20;;;;;;;5.43;2.80;;;;;;;4.62;54.18;95330.56;5098510;28;20250;-70
2024/01/27 01:01:47;;;;;;;3.30;2.40;;;;;;;4.58;54.54;95328.47;5097984;28;20253;-70
2024/01/27 01:04:14;;;;;;;4.57;2.75;;;;;;;4.55;54.39;95333.72;5098518;28;20623;-70
2024/01/27 01:06:41;;;;;;;3.90;2.75;;;;;;;4.57;54.70;95334.22;5098854;28;20177;-70
2024/01/27 01:09:08;;;;;;;5.55;2.85;;;;;;;4.59;54.62;95326.53;5098580;28;20220;-70
2024/01/27 01:11:36;;;;;;;5.35;2.80;;;;;;;4.59;54.72;95323.78;5098065;28;20192;-70
2024/01/27 01:14:03;;;;;;;5.75;2.90;;;;;;;4.58;54.38;95331.19;5097400;28;20224;-70
2024/01/27 01:16:32;;;;;;;4.43;3.00;;;;;;;4.54;54.65;95329.38;5098240;28;20196;-70
2024/01/27 01:18:59;;;;;;;4.82;2.80;;;;;;;4.52;54.74;95321.47;5098467;28;20193;-70
2024/01/27 01:21:26;;;;;;;4.22;2.58;;;;;;;4.51;55.00;95328.06;5098211;28;20180;-70
2024/01/27 01:23:53;;;;;;;3.72;2.50;;;;;;;4.49;54.87;95319.34;5098102;28;20204;-70
2024/01/27 01:26:20;;;;;;;4.35;2.72;;;;;;;4.46;54.64;95321.91;5098170;28;20210;-70
2024/01/27 01:28:47;;;;;;;5.25;3.17;;;;;;;4.44;54.73;95324.16;5096994;28;20273;-71
2024/01/27 01:31:14;;;;;;;3.90;2.95;;;;;;;4.43;54.67;95311.59;5096269;28;20196;-71
2024/01/27 01:33:43;;;;;;;4.38;2.95;;;;;;;4.36;55.08;95303.84;5096496;28;20192;-71
2024/01/27 01:36:10;;;;;;;4.43;2.90;;;;;;;4.38;54.97;95300.78;5095855;28;20192;-71
2024/01/27 01:38:37;;;;;;;3.72;2.95;;;;;;;4.37;54.33;95299.19;5097015;28;20185;-71
2024/01/27 01:41:04;;;;;;;4.40;3.03;;;;;;;4.42;54.35;95299.06;5095833;28;20636;-71
2024/01/27 01:43:31;;;;;;;4.38;2.95;;;;;;;4.43;54.29;95298.75;5113867;28;20250;-71
2024/01/27 01:45:58;;;;;;;3.85;2.65;;;;;;;4.47;53.95;95283.38;5095657;28;20238;-71
2024/01/27 01:48:25;;;;;;;3.78;2.40;;;;;;;4.52;53.72;95285.16;5096930;28;20185;-71
2024/01/27 01:50:54;;;;;;;3.78;2.60;;;;;;;4.61;53.19;95285.22;5097077;28;20212;-71
2024/01/27 01:53:21;;;;;;;4.85;2.53;;;;;;;4.67;52.34;95281.25;5097385;28;20192;-71
2024/01/27 01:55:49;;;;;;;5.10;2.60;;;;;;;4.73;51.78;95290.97;5096811;28;20185;-71
2024/01/27 01:58:17;;;;;;;3.60;2.30;;;;;;;4.80;51.37;95288.59;5096446;28;20181;-71
2024/01/27 02:00:44;;;;;;;3.97;2.40;;;;;;;4.88;50.56;95284.31;5096300;28;20238;-71
2024/01/27 02:03:12;;;;;;;2.83;2.30;;;;;;;4.96;49.42;95278.09;5095993;28;20257;-71
2024/01/27 02:05:39;;;;;;;3.60;2.03;;;;;;;5.01;48.15;95281.50;5096669;28;20203;-70
2024/01/27 02:08:08;;;;;;;2.47;1.73;;;;;;;5.10;47.71;95267.09;5096176;28;20184;-71
2024/01/27 02:10:37;;;;;;;2.90;2.17;;;;;;;5.12;46.13;95268.38;5095293;28;20215;-71
2024/01/27 02:13:05;;;;;;;3.53;2.10;;;;;;;5.20;46.56;95259.41;5096531;28;20195;-71
2024/01/27 02:15:32;;;;;;;3.03;2.38;;;;;;;5.24;45.59;95251.41;5096408;28;20204;-71
2024/01/27 02:18:00;;;;;;;3.70;2.05;;;;;;;5.28;45.13;95255.09;5096134;28;20188;-71
2024/01/27 02:20:26;;;;;;;2.97;2.10;;;;;;;5.31;43.69;95246.28;5096068;28;20588;-71
2024/01/27 02:22:54;;;;;;;2.33;2.13;;;;;;;5.37;44.17;95250.47;5095478;28;20232;-70
2024/01/27 02:25:22;;;;;;;3.13;2.17;;;;;;;5.42;43.80;95250.34;5095696;28;20249;-70
2024/01/27 02:27:49;;;;;;;2.15;1.95;;;;;;;5.42;43.71;95244.88;5096176;28;20720;-70
2024/01/27 02:30:16;;;;;;;2.35;1.98;;;;;;;5.43;43.26;95240.22;5034393;28;1741494;-70
2024/01/27 02:32:43;;;;;;;2.60;1.92;;;;;;;5.46;43.27;95234.09;5097559;28;20176;-70
2024/01/27 02:35:14;;;;;;;2.85;1.92;;;;;;;5.46;43.19;95234.91;5096838;28;20601;-70
2024/01/27 02:37:41;;;;;;;2.63;1.95;;;;;;;5.47;42.46;95239.25;5096656;28;20197;-70
2024/01/27 02:40:10;;;;;;;2.58;1.90;;;;;;;5.51;41.90;95244.91;5097019;28;20193;-70
2024/01/27 02:42:40;;;;;;;2.97;1.80;;;;;;;5.53;41.87;95239.94;5097297;28;20271;-70
2024/01/27 02:45:07;;;;;;;2.75;1.70;;;;;;;5.55;41.48;95235.75;5096101;28;20196;-70
2024/01/27 02:47:35;;;;;;;2.42;2.05;;;;;;;5.59;41.36;95248.78;5097763;28;20269;-70
2024/01/27 02:50:02;;;;;;;1.88;1.60;;;;;;;5.63;41.34;95247.84;5096475;28;20204;-70
2024/01/27 02:52:29;;;;;;;3.13;1.92;;;;;;;5.65;41.49;95242.84;5112506;28;20261;-70
2024/01/27 02:54:57;;;;;;;2.80;1.90;;;;;;;5.68;41.62;95252.38;5095635;28;20209;-70
2024/01/27 02:57:24;;;;;;;4.03;2.30;;;;;;;5.66;42.49;95243.66;5096312;28;20210;-71
2024/01/27 02:59:52;;;;;;;2.67;2.00;;;;;;;5.68;43.05;95257.84;5095315;28;20251;-71
2024/01/27 03:02:19;;;;;;;2.75;2.13;;;;;;;5.67;43.44;95258.97;5095402;28;20586;-71
2024/01/27 03:04:47;;;;;;;2.53;2.17;;;;;;;5.69;44.24;95267.66;5096611;28;20181;-71
2024/01/27 03:07:14;;;;;;;3.63;2.00;;;;;;;5.66;45.29;95266.34;5095518;28;20539;-70
2024/01/27 03:09:41;;;;;;;2.55;2.13;;;;;;;5.65;45.75;95274.88;5095171;28;20269;-70
2024/01/27 03:12:08;;;;;;;3.35;2.33;;;;;;;5.63;46.56;95271.66;5095257;28;20226;-71
2024/01/27 03:14:35;;;;;;;3.60;2.58;;;;;;;5.57;47.36;95272.94;5095138;28;20207;-71
2024/01/27 03:17:05;;;;;;;2.85;2.10;;;;;;;5.53;47.74;95280.97;5096332;28;20512;-71
2024/01/27 03:19:32;;;;;;;3.65;2.10;;;;;;;5.45;48.28;95281.75;5095394;28;20242;-71
2024/01/27 03:21:59;;;;;;;3.40;2.30;;;;;;;5.37;49.55;95277.03;5095283;28;20196;-71
2024/01/27 03:24:26;;;;;;;3.22;2.08;;;;;;;5.26;50.76;95288.22;5095318;28;20212;-71
2024/01/27 03:26:53;;;;;;;3.45;2.45;;;;;;;5.24;51.46;95287.75;5095224;28;20193;-71
2024/01/27 03:29:20;;;;;;;3.03;2.35;;;;;;;5.19;52.27;95295.25;5095300;28;20305;-72
2024/01/27 03:31:47;;;;;;;3.58;2.15;;;;;;;5.15;53.08;95278.69;5096082;28;20553;-71
2024/01/27 03:34:15;;;;;;;3.63;2.55;;;;;;;5.14;53.82;95282.53;5095731;28;20188;-70
2024/01/27 03:36:42;;;;;;;3.30;2.20;;;;;;;5.16;54.09;95271.31;5095635;28;20224;-70
2024/01/27 03:39:09;;;;;;;3.70;2.40;;;;;;;5.15;54.59;95267.75;5095249;28;20204;-71
2024/01/27 03:41:36;;;;;;;3.42;2.40;;;;;;;5.12;55.37;95267.56;5094645;28;20299;-70
2024/01/27 03:44:03;;;;;;;3.53;2.30;;;;;;;5.14;56.12;95259.84;5096118;28;20257;-70
2024/01/27 03:46:30;;;;;;;2.15;1.95;;;;;;;5.11;56.32;95260.47;5095498;28;20605;-70
2024/01/27 03:48:57;;;;;;;2.60;2.20;;;;;;;5.13;56.39;95247.31;5094555;28;20223;-70
2024/01/27 03:51:26;;;;;;;2.25;2.00;;;;;;;5.11;56.83;95246.81;5095734;28;20223;-70
2024/01/27 03:53:53;;;;;;;3.63;2.10;;;;;;;5.10;57.13;95248.75;5095707;28;20199;-70
2024/01/27 03:56:20;;;;;;;3.10;1.85;;;;;;;5.11;57.17;95253.09;5095650;28;20246;-70
2024/01/27 03:58:47;;;;;;;3.50;2.30;;;;;;;5.11;56.98;95244.06;5111693;28;20226;-70
2024/01/27 04:01:15;;;;;;;3.72;2.30;;;;;;;5.09;57.46;95243.59;5094675;28;20529;-71
2024/01/27 04:03:43;;;;;;;3.10;2.10;;;;;;;5.06;58.96;95259.50;5095452;28;20249;-71
2024/01/27 04:06:09;;;;;;;2.80;2.30;;;;;;;5.03;59.10;95259.31;5094869;28;20222;-71
2024/01/27 04:08:39;;;;;;;3.78;2.50;;;;;;;4.91;59.19;95253.63;5095204;28;20203;-70
2024/01/27 04:11:07;;;;;;;2.72;2.20;;;;;;;4.88;59.83;95255.06;5094360;28;20219;-70
2024/01/27 04:13:35;;;;;;;2.83;2.10;;;;;;;4.89;59.91;95243.00;5112023;28;20253;-70
2024/01/27 04:16:03;;;;;;;4.72;2.63;;;;;;;4.82;60.25;95248.91;5094422;28;20214;-70
2024/01/27 04:18:30;;;;;;;2.53;2.03;;;;;;;4.86;60.52;95248.28;5094766;28;20224;-70
2024/01/27 04:20:57;;;;;;;2.85;2.13;;;;;;;4.87;61.11;95234.31;5095399;28;20242;-70
2024/01/27 04:23:24;;;;;;;3.00;2.30;;;;;;;4.91;60.68;95242.69;5095660;28;20200;-70
2024/01/27 04:25:54;;;;;;;4.75;3.50;;;;;;;4.95;60.94;95246.41;5095266;28;20184;-70
2024/01/27 04:28:21;;;;;;;3.42;2.70;;;;;;;4.98;61.08;95252.06;5095805;28;20185;-70
2024/01/27 04:30:48;;;;;;;3.28;2.65;;;;;;;5.04;61.09;95242.59;5115142;28;20270;-70
2024/01/27 04:33:15;;;;;;;3.38;2.58;;;;;;;5.08;60.83;95229.09;5097910;28;20199;-70
2024/01/27 04:35:42;;;;;;;2.22;2.00;;;;;;;5.12;61.08;95246.50;5115873;28;20176;-70
2024/01/27 04:38:09;;;;;;;3.40;2.15;;;;;;;5.14;61.06;95252.47;5097407;28;20668;-70
2024/01/27 04:40:36;;;;;;;2.75;2.00;;;;;;;5.16;61.40;95246.69;5097377;28;20223;-70
2024/01/27 04:43:05;;;;;;;3.20;1.88;;;;;;;5.17;62.34;95245.56;5115791;28;20229;-70
2024/01/27 04:45:32;;;;;;;2.70;2.10;;;;;;;5.20;62.55;95244.94;5097358;28;20249;-70
2024/01/27 04:48:00;;;;;;;2.78;2.20;;;;;;;5.18;62.56;95241.69;5097352;28;20188;-70
2024/01/27 04:50:27;;;;;;;3.13;2.55;;;;;;;5.18;62.92;95245.25;5115354;28;20204;-70
2024/01/27 04:52:55;;;;;;;2.60;2.38;;;;;;;5.17;63.63;95256.50;5098368;28;20224;-70
2024/01/27 04:55:22;;;;;;;2.03;1.92;;;;;;;5.16;63.74;95247.50;5115705;28;20184;-70
2024/01/27 04:57:49;;;;;;;2.00;1.80;;;;;;;5.19;63.76;95249.59;5115105;28;20184;-70
2024/01/27 05:00:18;;;;;;;3.00;1.92;;;;;;;5.19;63.98;95244.13;5097177;28;20191;-70
2024/01/27 05:02:46;;;;;;;2.13;1.90;;;;;;;5.21;64.40;95252.81;5097450;28;20248;-70
2024/01/27 05:05:14;;;;;;;1.88;1.67;;;;;;;5.21;64.16;95252.81;5097627;28;20206;-70
2024/01/27 05:07:41;;;;;;;1.70;1.60;;;;;;;5.23;64.27;95258.78;5097736;28;20283;-70
2024/01/27 05:10:11;;;;;;;2.67;1.70;;;;;;;5.25;64.56;95253.00;5097846;28;20274;-69
2024/01/27 05:12:38;;;;;;;2.22;1.63;;;;;;;5.26;64.72;95258.13;5114973;28;20218;-70
2024/01/27 05:15:06;;;;;;;1.70;1.60;;;;;;;5.27;65.43;95257.03;5115217;28;20249;-70
2024/01/27 05:17:34;;;;;;;2.03;1.80;;;;;;;5.25;66.25;95269.41;5097805;28;20191;-70
2024/01/27 05:20:04;;;;;;;1.90;1.70;;;;;;;5.24;66.50;95270.53;5097204;28;20627;-70
2024/01/27 05:22:31;;;;;;;1.70;1.27;;;;;;;5.24;67.70;95257.66;5117123;28;20246;-70
2024/01/27 05:24:58;;;;;;;1.50;1.40;;;;;;;5.24;67.27;95267.81;5100799;28;20195;-70
2024/01/27 05:27:25;;;;;;;2.28;1.98;;;;;;;5.24;67.85;95265.88;5101689;28;20221;-70
2024/01/27 05:29:52;;;;;;;2.38;1.75;;;;;;;5.23;67.53;95258.78;5097199;28;20232;-70
2024/01/27 05:32:19;;;;;;;3.38;1.80;;;;;;;5.20;67.97;95269.56;5097737;28;20188;-70
2024/01/27 05:34:48;;;;;;;2.63;2.22;;;;;;;5.18;68.52;95260.84;5097318;28;20235;-70
2024/01/27 05:37:15;;;;;;;2.63;2.20;;;;;;;5.14;69.02;95268.88;5097886;28;20200;-70
2024/01/27 05:39:42;;;;;;;2.78;2.40;;;;;;;5.11;69.31;95272.22;5097917;28;20239;-70
2024/01/27 05:42:09;;;;;;;3.03;2.42;;;;;;;5.09;69.49;95269.00;5098175;28;20196;-70
2024/01/27 05:44:37;;;;;;;2.88;2.58;;;;;;;5.05;69.23;95271.56;5097643;28;20197;-70
2024/01/27 05:47:04;;;;;;;3.35;2.60;;;;;;;5.00;69.27;95282.59;5098126;28;20188;-70
2024/01/27 05:49:31;;;;;;;4.38;3.15;;;;;;;4.96;69.34;95273.41;5097694;28;20185;-70
2024/01/27 05:52:00;;;;;;;5.03;3.92;;;;;;;4.90;69.39;95276.59;5097858;28;20257;-71
2024/01/27 05:54:27;;;;;;;4.82;4.32;;;;;;;4.85;69.77;95285.72;5097554;28;20234;-70
2024/01/27 05:56:54;;;;;;;4.80;4.30;;;;;;;4.81;70.21;95280.09;5098208;28;20196;-67
2024/01/27 05:59:22;;;;;;;4.10;3.70;;;;;;;4.82;70.25;95283.63;5097779;28;20396;-70
2024/01/27 06:01:49;;;;;;;3.88;3.50;;;;;;;4.82;70.23;95286.34;5114523;28;20224;-71
2024/01/27 06:04:16;;;;;;;3.72;3.30;;;;;;;4.85;71.01;95287.66;5097444;28;20597;-71
2024/01/27 06:06:43;;;;;;;3.17;2.88;;;;;;;4.88;70.78;95287.84;5097099;28;20247;-71
2024/01/27 06:09:11;;;;;;;3.38;2.88;;;;;;;4.94;70.55;95294.81;5097441;28;20241;-71
2024/01/27 06:11:39;;;;;;;3.80;3.20;;;;;;;4.96;70.81;95299.97;5097614;28;20208;-70
2024/01/27 06:14:06;;;;;;;4.15;3.42;;;;;;;4.97;70.54;95305.09;5113569;28;20207;-71
2024/01/27 06:16:35;;;;;;;4.75;3.63;;;;;;;4.99;70.40;95307.53;5096582;28;20257;-71
2024/01/27 06:19:02;;;;;;;5.30;4.68;;;;;;;4.95;70.37;95307.34;5097935;28;20192;-70
2024/01/27 06:21:29;;;;;;;5.60;4.43;;;;;;;4.94;70.39;95313.13;5096431;28;20218;-71
2024/01/27 06:23:56;;;;;;;3.88;3.40;;;;;;;4.95;70.11;95312.00;5097627;28;20257;-71
2024/01/27 06:26:24;;;;;;;3.20;2.90;;;;;;;4.98;70.19;95317.66;5096760;28;20214;-71
2024/01/27 06:28:51;;;;;;;2.65;2.40;;;;;;;5.01;70.28;95322.53;5100987;28;20607;-70
2024/01/27 06:31:18;;;;;;;2.00;1.90;;;;;;;5.07;69.97;95328.66;5117641;28;20204;-70
2024/01/27 06:33:46;;;;;;;2.22;2.03;;;;;;;5.12;69.67;95335.91;5116576;28;20272;-70
2024/01/27 06:36:13;;;;;;;2.05;1.83;;;;;;;5.13;69.29;95343.03;5099842;28;20195;-71
2024/01/27 06:38:40;;;;;;;2.30;1.95;;;;;;;5.17;69.29;95349.47;5117493;28;20187;-70
2024/01/27 06:41:07;;;;;;;1.90;1.80;;;;;;;5.19;69.15;95349.94;5117454;28;20221;-73
2024/01/27 06:43:36;;;;;;;1.98;1.80;;;;;;;5.23;69.26;95345.50;5117038;28;20589;-73
2024/01/27 06:46:04;;;;;;;1.77;1.67;;;;;;;5.25;68.65;95345.97;5117314;28;20256;-72
2024/01/27 06:48:31;;;;;;;1.52;1.42;;;;;;;5.23;69.16;95357.25;5100241;28;20204;-70
2024/01/27 06:50:58;;;;;;;1.30;1.20;;;;;;;5.25;68.77;95367.84;5099446;28;20220;-70
2024/01/27 06:53:25;;;;;;;1.30;1.20;;;;;;;5.28;68.46;95367.25;5099622;28;20199;-70
2024/01/27 06:55:53;;;;;;;1.40;1.30;;;;;;;5.28;67.71;95362.56;5116499;28;20572;-70
2024/01/27 06:58:20;;;;;;;1.63;1.52;;;;;;;5.32;67.79;95371.75;5099493;28;20206;-70
2024/01/27 07:00:49;;;;;;;1.58;1.48;;;;;;;5.32;67.19;95358.09;5099724;28;20192;-70
2024/01/27 07:03:16;;;;;;;1.60;1.50;;;;;;;5.34;66.94;95352.31;5116163;28;20196;-70
2024/01/27 07:05:43;;;;;;;1.42;1.33;;;;;;;5.37;67.12;95365.34;5099038;28;20241;-70
2024/01/27 07:08:10;;;;;;;1.42;1.30;;;;;;;5.39;66.87;95360.38;5116067;28;20245;-70
2024/01/27 07:10:37;;;;;;;1.95;1.85;;;;;;;5.41;66.63;95360.06;5116354;28;20238;-70
2024/01/27 07:13:07;;;;;;;1.60;1.50;;;;;;;5.40;66.24;95363.94;5099375;28;20184;-70
2024/01/27 07:15:34;;;;;;;1.60;1.50;;;;;;;5.40;66.28;95362.00;5116802;28;20240;-71
2024/01/27 07:18:03;;;;;;;1.50;1.40;;;;;;;5.41;65.87;95369.09;5116971;28;20187;-70
2024/01/27 07:20:30;;;;;;;1.83;1.73;;;;;;;5.37;65.87;95378.22;5116678;28;20237;-70
2024/01/27 07:22:57;;;;;;;2.30;2.10;;;;;;;5.32;65.81;95376.44;5116563;28;20242;-70
2024/01/27 07:25:28;;;;;;;1.83;1.73;;;;;;;5.32;65.94;95382.72;5116913;28;20179;-70
2024/01/27 07:27:55;;;;;;;1.80;1.70;;;;;;;5.32;65.89;95388.19;5117346;28;20212;-70
2024/01/27 07:30:22;;;;;;;1.90;1.80;;;;;;;5.35;65.73;95399.63;5095137;28;20240;-70
2024/01/27 07:32:49;;;;;;;1.92;1.77;;;;;;;5.34;65.25;95419.88;5095177;28;20204;-71
2024/01/27 07:35:19;;;;;;;1.77;1.65;;;;;;;5.28;64.82;95436.41;5095738;28;20204;-71
2024/01/27 07:37:46;;;;;;;2.17;2.08;;;;;;;5.26;64.36;95438.63;5095722;28;20193;-71
2024/01/27 07:40:13;;;;;;;3.15;2.95;;;;;;;5.24;64.54;95465.50;5095835;28;20188;-70
2024/01/27 07:42:41;;;;;;;2.83;2.35;;;;;;;5.25;64.07;95467.13;5094899;28;20231;-71
2024/01/27 07:45:09;;;;;;;3.03;2.40;;;;;;;5.21;64.04;95479.00;5095469;28;20231;-70
2024/01/27 07:47:36;;;;;;;2.20;2.00;;;;;;;5.17;63.76;95480.72;5095417;28;20189;-71
2024/01/27 07:50:03;;;;;;;2.72;2.53;;;;;;;5.18;63.29;95482.34;5095166;28;20269;-70
2024/01/27 07:52:31;;;;;;;2.38;2.17;;;;;;;5.19;62.63;95482.03;5095391;28;20196;-71
2024/01/27 07:54:58;;;;;;;2.72;2.53;;;;;;;5.21;62.19;95481.72;5095622;28;20185;-71
2024/01/27 07:57:25;;;;;;;2.67;2.47;;;;;;;5.25;62.19;95483.53;5095226;28;20184;-71
2024/01/27 07:59:52;;;;;;;2.50;2.30;;;;;;;5.28;62.15;95484.84;5112025;28;20230;-70
2024/01/27 08:02:19;;;;;;;2.40;2.20;;;;;;;5.25;61.98;95456.19;5095467;28;20230;-71
2024/01/27 08:04:46;;;;;;;3.35;2.85;;;;;;;5.22;61.63;95491.53;5095625;28;20188;-72
2024/01/27 08:07:16;;;;;;;3.33;3.03;;;;;;;5.17;62.12;95495.22;5095573;28;20180;-72
2024/01/27 08:09:44;;;;;;;2.70;2.50;;;;;;;5.15;62.31;95493.88;5095151;28;20207;-72
2024/01/27 08:12:11;;;;;;;2.60;2.40;;;;;;;5.14;62.08;95501.28;5095279;28;20596;-71
2024/01/27 08:14:39;;;;;;;2.45;2.10;;;;;;;5.17;62.29;95505.34;5094127;28;20673;-72
2024/01/27 08:17:06;;;;;;;2.67;2.47;;;;;;;5.18;61.87;95510.50;5094503;28;20200;-72
2024/01/27 08:19:33;;;;;;;2.83;2.53;;;;;;;5.18;61.97;95494.09;5095206;28;20366;-75
2024/01/27 08:22:00;;;;;;;3.13;2.83;;;;;;;5.20;61.56;95471.91;5094644;28;20205;-78
2024/01/27 08:24:27;;;;;;;2.55;2.35;;;;;;;5.24;61.10;95486.59;5094897;28;20255;-76
2024/01/27 08:26:56;;;;;;;2.80;2.60;;;;;;;5.26;60.77;95492.53;5094326;28;20418;-76
2024/01/27 08:29:23;;;;;;;2.80;2.60;;;;;;;5.28;60.67;95499.31;5093780;28;20914;-74
2024/01/27 08:31:50;;;;;;;3.00;2.67;;;;;;;5.29;60.26;95500.94;5095323;28;20221;-72
2024/01/27 08:34:17;;;;;;;2.53;2.33;;;;;;;5.26;60.13;95474.19;5094328;28;20196;-72
2024/01/27 08:36:44;;;;;;;2.28;2.17;;;;;;;5.22;60.19;95445.84;5095080;28;20219;-74
2024/01/27 08:39:12;;;;;;;2.25;2.05;;;;;;;5.24;60.57;95478.38;5094642;28;20205;-76
2024/01/27 08:41:39;;;;;;;2.63;2.15;;;;;;;5.23;60.54;95491.25;5095150;28;20207;-76
2024/01/27 08:44:08;;;;;;;2.53;2.33;;;;;;;5.23;60.60;95491.25;5094193;28;20226;-75
2024/01/27 08:46:35;;;;;;;2.65;2.45;;;;;;;5.25;60.92;95483.53;5094527;28;20192;-76
2024/01/27 08:49:02;;;;;;;2.60;2.40;;;;;;;5.31;61.17;95482.31;5094226;28;20200;-72
2024/01/27 08:51:29;;;;;;;2.35;2.15;;;;;;;5.38;60.69;95476.41;5094886;28;20216;-75
2024/01/27 08:53:56;;;;;;;2.60;2.40;;;;;;;5.38;60.48;95503.75;5094866;28;20219;-76
2024/01/27 08:56:23;;;;;;;2.60;2.40;;;;;;;5.34;60.72;95478.16;5095967;28;20180;-76
2024/01/27 08:58:51;;;;;;;1.90;1.80;;;;;;;5.34;61.05;95480.88;5097845;28;20253;-76
2024/01/27 09:01:19;;;;;;;2.50;2.30;;;;;;;5.46;60.80;95488.53;5099333;28;20188;-75
2024/01/27 09:03:47;;;;;;;2.50;2.30;;;;;;;5.52;60.54;95492.78;5098525;28;20204;-77
2024/01/27 09:06:15;;;;;;;3.00;2.70;;;;;;;5.53;60.61;95500.66;5098733;28;20199;-77
2024/01/27 09:08:42;;;;;;;2.60;2.30;;;;;;;5.56;59.69;95499.25;5099229;28;20191;-79
2024/01/27 09:11:09;;;;;;;2.45;2.30;;;;;;;5.57;59.12;95500.84;5099159;28;20204;-77
2024/01/27 09:13:37;;;;;;;2.20;2.00;;;;;;;5.55;59.17;95501.16;5097573;28;20220;-77
2024/01/27 09:16:04;;;;;;;2.00;1.80;;;;;;;5.54;59.21;95493.25;5098316;28;20211;-76
2024/01/27 09:18:33;;;;;;;2.58;2.20;;;;;;;5.52;59.50;95487.31;5098420;28;20545;-76
2024/01/27 09:21:01;;;;;;;2.10;2.00;;;;;;;5.54;59.31;95504.19;5098451;28;20184;-77
2024/01/27 09:23:29;;;;;;;1.88;1.77;;;;;;;5.48;59.42;95481.63;5098022;28;20215;-76
2024/01/27 09:25:56;;;;;;;2.40;2.20;;;;;;;5.48;59.59;95478.91;5098577;28;20196;-76
2024/01/27 09:28:23;;;;;;;2.28;2.17;;;;;;;5.55;59.76;95484.75;5098243;28;20196;-76
2024/01/27 09:30:50;;;;;;;2.42;2.03;;;;;;;5.61;59.36;95474.47;5080826;28;20279;-76
2024/01/27 09:33:19;;;;;;;2.10;1.90;;;;;;;5.66;59.52;95462.59;5080879;28;20188;-76
2024/01/27 09:35:48;;;;;;;2.20;2.10;;;;;;;5.66;58.99;95457.91;5098022;28;20199;-76
2024/01/27 09:38:15;;;;;;;1.85;1.70;;;;;;;5.63;59.37;95453.09;5098075;28;20177;-76
2024/01/27 09:40:42;;;;;;;2.40;2.20;;;;;;;5.61;59.62;95446.31;5080514;28;20250;-76
2024/01/27 09:43:14;;;;;;;1.90;1.80;;;;;;;5.58;59.32;95441.44;5080482;28;20201;-76
2024/01/27 09:45:41;;;;;;;1.83;1.73;;;;;;;5.57;59.29;95450.78;5080657;28;20214;-76
2024/01/27 09:48:10;;;;;;;2.05;1.95;;;;;;;5.57;59.27;95469.94;5080049;28;20287;-76
2024/01/27 09:50:38;;;;;;;2.85;1.77;;;;;;;5.54;59.46;95461.22;5098129;28;20234;-76
2024/01/27 09:53:08;;;;;;;1.70;1.60;;;;;;;5.39;59.49;95472.53;5097956;28;20204;-76
2024/01/27 09:55:36;;;;;;;1.80;1.70;;;;;;;5.37;59.81;95477.50;5098327;28;20250;-76
2024/01/27 09:58:03;;;;;;;2.72;1.90;;;;;;;5.38;60.10;95498.28;5098469;28;20253;-76
2024/01/27 10:00:30;;;;;;;1.80;1.70;;;;;;;5.34;59.81;95507.41;5097571;28;20616;-78
2024/01/27 10:02:58;;;;;;;1.70;1.60;;;;;;;5.29;59.66;95503.66;5080918;28;20197;-77
2024/01/27 10:05:25;;;;;;;1.80;1.48;;;;;;;5.26;59.75;95507.00;5097483;28;20275;-77
2024/01/27 10:07:53;;;;;;;1.67;1.58;;;;;;;5.20;60.15;95510.19;5080197;28;20207;-77
2024/01/27 10:10:22;;;;;;;1.80;1.60;;;;;;;5.20;60.42;95512.94;5080834;28;20185;-77
2024/01/27 10:12:50;;;;;;;1.90;1.80;;;;;;;5.16;60.38;95507.28;5097913;28;20236;-78
2024/01/27 10:15:21;;;;;;;1.73;1.63;;;;;;;5.15;60.52;95515.75;5080704;28;20271;-77
2024/01/27 10:17:48;;;;;;;2.50;2.30;;;;;;;5.11;60.75;95523.78;5098147;28;20185;-77
2024/01/27 10:20:15;;;;;;;2.10;1.90;;;;;;;5.08;60.79;95505.25;5080523;28;20199;-77
2024/01/27 10:22:44;;;;;;;2.17;2.03;;;;;;;5.05;61.06;95514.09;5079592;28;20223;-77
2024/01/27 10:25:11;;;;;;;1.90;1.80;;;;;;;5.00;60.95;95506.78;5097327;28;20227;-77
2024/01/27 10:27:41;;;;;;;2.47;2.30;;;;;;;5.02;61.37;95515.50;5079822;28;20224;-77
2024/01/27 10:30:16;;;;;;;2.03;1.92;;;;;;;5.08;60.82;95518.91;5090048;28;20235;-77
2024/01/27 10:32:43;;;;;;;3.13;2.83;;;;;;;5.09;60.90;95536.16;5096543;28;20211;-77
2024/01/27 10:35:11;;;;;;;2.28;2.17;;;;;;;5.10;60.95;95526.81;5113691;28;20201;-77
2024/01/27 10:37:39;;;;;;;1.90;1.80;;;;;;;5.13;61.01;95539.88;5096760;28;20200;-78
2024/01/27 10:40:08;;;;;;;1.90;1.80;;;;;;;5.11;60.70;95531.97;5096165;28;20651;-77
2024/01/27 10:42:36;;;;;;;2.08;1.80;;;;;;;5.09;61.03;95544.34;5096208;28;20208;-77
2024/01/27 10:45:05;;;;;;;1.98;1.80;;;;;;;5.06;61.01;95538.38;5096356;28;20192;-77
2024/01/27 10:47:33;;;;;;;1.92;1.83;;;;;;;5.07;61.10;95553.66;5095787;28;20200;-77
2024/01/27 10:50:01;;;;;;;1.85;1.75;;;;;;;4.99;61.53;95546.19;5095964;28;20234;-77
2024/01/27 10:52:30;;;;;;;1.95;1.85;;;;;;;4.96;61.77;95549.50;5096812;28;20200;-77
2024/01/27 10:55:01;;;;;;;2.33;1.90;;;;;;;4.98;61.75;95552.75;5095777;28;20196;-77
2024/01/27 10:57:28;;;;;;;2.10;2.00;;;;;;;5.03;61.61;95541.72;5096453;28;20585;-77
2024/01/27 10:59:55;;;;;;;1.83;1.73;;;;;;;5.01;61.42;95546.69;5096783;28;20184;-77
2024/01/27 11:02:23;;;;;;;1.88;1.77;;;;;;;4.98;61.86;95549.22;5096296;28;20265;-77
2024/01/27 11:04:53;;;;;;;1.90;1.80;;;;;;;4.91;62.09;95538.69;5096385;28;20216;-77
2024/01/27 11:07:20;;;;;;;1.60;1.50;;;;;;;4.88;62.48;95546.69;5096513;28;20296;-77
2024/01/27 11:09:50;;;;;;;1.60;1.50;;;;;;;4.78;62.29;95555.91;5096827;28;20198;-77
2024/01/27 11:12:18;;;;;;;2.58;1.85;;;;;;;4.69;63.11;95555.81;5096297;28;20231;-77
2024/01/27 11:14:45;;;;;;;1.80;1.70;;;;;;;4.70;63.23;95545.69;5096052;28;20196;-77
2024/01/27 11:17:12;;;;;;;2.10;2.00;;;;;;;4.76;63.47;95544.50;5095427;28;20196;-77
2024/01/27 11:19:42;;;;;;;2.15;2.00;;;;;;;4.78;63.47;95553.19;5095326;28;20200;-77
2024/01/27 11:22:25;;;;;;;1.90;1.80;;;;;;;4.82;63.48;95540.50;5095890;28;20196;-77
2024/01/27 11:24:52;;;;;;;2.08;1.98;;;;;;;4.81;63.35;95536.97;5095957;28;20220;-77
2024/01/27 11:27:19;;;;;;;1.90;1.80;;;;;;;4.78;63.73;95555.91;5096196;28;20245;-77
2024/01/27 11:29:48;;;;;;;2.40;2.20;;;;;;;4.75;63.53;95545.56;5095289;28;20313;-77
2024/01/27 11:32:16;;;;;;;2.47;2.28;;;;;;;4.74;63.81;95555.69;5094882;28;20223;-77
2024/01/27 11:34:45;;;;;;;2.47;2.28;;;;;;;4.76;63.57;95555.41;5095142;28;20261;-77
2024/01/27 11:37:13;;;;;;;2.45;2.20;;;;;;;4.76;63.94;95567.16;5095206;28;20250;-77
2024/01/27 11:39:40;;;;;;;2.17;2.00;;;;;;;4.74;63.79;95554.91;5095766;28;20185;-77
2024/01/27 11:42:09;;;;;;;2.00;1.90;;;;;;;4.75;63.31;95573.72;5095264;28;20197;-77